Time;durP1;ratioP1;P1;durP2;ratioP2;P2;SDS_P1;SDS_P2;PMS_P1;PMS_P2;Temp;Humidity;BMP_temperature;BMP_pressure;BME280_temperature;BME280_humidity;BME280_pressure;Samples;Min_cycle;Max_cycle;Signal;HPM_P1;HPM_P2
2022/11/02 00:00:30;;;;;;;8.60;2.03;;;12.10;99.70;;;;;;5007174;28;20195;-53
2022/11/02 00:02:56;;;;;;;14.55;1.85;;;13.20;99.90;;;;;;5004194;28;20187;-53
2022/11/02 00:05:24;;;;;;;13.95;2.58;;;12.30;99.90;;;;;;5007736;28;20053;-54
2022/11/02 00:07:54;;;;;;;11.20;2.05;;;12.20;99.90;;;;;;5003208;28;20068;-54
2022/11/02 00:10:21;;;;;;;10.32;1.67;;;14.30;99.90;;;;;;5006851;28;20513;-53
2022/11/02 00:12:48;;;;;;;12.73;1.80;;;11.10;99.90;;;;;;5008156;28;20049;-53
2022/11/02 00:15:14;;;;;;;9.70;1.80;;;13.90;99.90;;;;;;5005789;28;20104;-54
2022/11/02 00:17:43;;;;;;;13.07;3.15;;;12.20;99.90;;;;;;5009994;28;20041;-52
2022/11/02 00:20:11;;;;;;;10.85;1.90;;;12.00;99.90;;;;;;5004456;28;20049;-53
2022/11/02 00:22:38;;;;;;;7.72;1.63;;;11.90;99.90;;;;;;5005972;28;20094;-50
2022/11/02 00:25:06;;;;;;;9.70;1.60;;;11.90;99.90;;;;;;5002766;28;20041;-52
2022/11/02 00:27:33;;;;;;;9.60;1.65;;;11.80;99.90;;;;;;5006173;28;20395;-52
2022/11/02 00:29:59;;;;;;;8.80;1.58;;;11.90;99.90;;;;;;5004972;28;20472;-52
2022/11/02 00:32:25;;;;;;;9.55;1.63;;;11.50;99.90;;;;;;5010331;28;20050;-52
2022/11/02 00:34:52;;;;;;;9.10;2.00;;;11.60;99.90;;;;;;5010076;28;20057;-52
2022/11/02 00:37:18;;;;;;;10.60;1.90;;;12.30;99.90;;;;;;5007981;28;20179;-49
2022/11/02 00:39:43;;;;;;;9.20;1.38;;;11.40;99.90;;;;;;5007548;28;20037;-51
2022/11/02 00:42:10;;;;;;;9.13;1.65;;;11.40;99.90;;;;;;5001724;28;20351;-47
2022/11/02 00:44:35;;;;;;;9.05;1.50;;;11.10;99.90;;;;;;5006655;28;20499;-52
2022/11/02 00:47:01;;;;;;;6.90;1.63;;;11.20;99.90;;;;;;5008731;28;20034;-50
2022/11/02 00:49:27;;;;;;;11.63;1.63;;;11.10;99.90;;;;;;5007207;28;20215;-52
2022/11/02 00:51:52;;;;;;;12.95;2.00;;;11.20;99.90;;;;;;5009812;28;20128;-51
2022/11/02 00:54:18;;;;;;;8.85;1.38;;;11.20;99.90;;;;;;5007402;28;20050;-53
2022/11/02 00:56:44;;;;;;;8.50;1.40;;;11.10;99.90;;;;;;5007397;28;20452;-49
2022/11/02 00:59:10;;;;;;;9.15;1.50;;;11.10;99.90;;;;;;5007275;28;20124;-48
2022/11/02 01:01:35;;;;;;;7.68;1.52;;;11.10;99.90;;;;;;5004960;28;20054;-52
2022/11/02 01:04:01;;;;;;;5.95;1.48;;;11.10;99.90;;;;;;5008723;28;20033;-51
2022/11/02 01:06:27;;;;;;;8.95;1.83;;;10.90;99.90;;;;;;5001703;28;20094;-50
2022/11/02 01:08:53;;;;;;;4.90;1.00;;;10.90;99.90;;;;;;5007802;28;20042;-52
2022/11/02 01:11:21;;;;;;;9.98;1.70;;;11.00;99.90;;;;;;5007880;28;20069;-50
2022/11/02 01:13:49;;;;;;;6.00;1.60;;;12.80;99.90;;;;;;5001709;28;20060;-48
2022/11/02 01:16:15;;;;;;;7.53;1.23;;;11.00;99.90;;;;;;5006025;28;20613;-53
2022/11/02 01:18:41;;;;;;;4.88;0.98;;;11.70;99.90;;;;;;5007174;28;20057;-50
2022/11/02 01:21:08;;;;;;;6.78;1.30;;;10.90;99.90;;;;;;5008669;28;20330;-53
2022/11/02 01:23:36;;;;;;;4.70;1.00;;;11.90;99.90;;;;;;5004783;28;20585;-52
2022/11/02 01:26:07;;;;;;;5.30;1.17;;;11.60;99.90;;;;;;5003389;28;20056;-53
2022/11/02 01:28:33;;;;;;;6.00;1.13;;;10.60;99.90;;;;;;5000988;28;20054;-54
2022/11/02 01:31:00;;;;;;;4.95;0.90;;;10.60;99.90;;;;;;5003898;28;20041;-52
2022/11/02 01:33:26;;;;;;;5.75;1.10;;;10.70;99.90;;;;;;5003701;28;20093;-53
2022/11/02 01:35:52;;;;;;;3.05;0.80;;;10.70;99.90;;;;;;5006100;28;20087;-55
2022/11/02 01:38:18;;;;;;;4.47;1.08;;;10.90;99.90;;;;;;5005815;28;20053;-53
2022/11/02 01:40:44;;;;;;;3.95;1.00;;;11.00;99.90;;;;;;5004985;28;20038;-55
2022/11/02 01:43:30;;;;;;;2.50;0.60;;;10.90;99.90;;;;;;5007412;28;20383;-54
2022/11/02 01:46:10;;;;;;;8.05;1.23;;;10.90;99.90;;;;;;5005314;28;20042;-53
2022/11/02 01:49:08;;;;;;;4.70;1.25;;;11.00;99.90;;;;;;5006473;28;20047;-52
2022/11/02 01:51:39;;;;;;;7.07;0.98;;;10.80;99.90;;;;;;5007639;28;20103;-53
2022/11/02 01:54:15;;;;;;;5.30;1.05;;;10.90;99.90;;;;;;5004742;28;20046;-50
2022/11/02 01:56:44;;;;;;;5.80;0.85;;;10.90;99.90;;;;;;5004391;28;20068;-50
2022/11/02 01:59:16;;;;;;;2.65;0.70;;;10.90;99.90;;;;;;5005306;28;20538;-52
2022/11/02 02:01:41;;;;;;;2.00;0.70;;;10.70;99.90;;;;;;5007283;28;20041;-48
2022/11/02 02:04:08;;;;;;;3.22;0.60;;;12.70;99.90;;;;;;5006729;28;20361;-48
2022/11/02 02:06:34;;;;;;;4.07;0.80;;;10.50;99.90;;;;;;5004743;28;20053;-52
2022/11/02 02:09:03;;;;;;;3.17;0.63;;;10.50;99.90;;;;;;5004699;28;20049;-53
2022/11/02 02:11:31;;;;;;;2.15;0.57;;;10.50;99.90;;;;;;5006025;28;20048;-54
2022/11/02 02:14:12;;;;;;;1.98;0.60;;;10.50;99.90;;;;;;5003477;28;20046;-49
2022/11/02 02:16:47;;;;;;;5.47;1.02;;;10.20;99.90;;;;;;5003249;28;20126;-51
2022/11/02 02:19:41;;;;;;;2.03;0.70;;;10.30;99.90;;;;;;5002212;28;20808;-53
2022/11/02 02:22:35;;;;;;;7.20;1.38;;;10.20;99.90;;;;;;5003920;28;20045;-53
2022/11/02 02:25:25;;;;;;;7.68;1.73;;;12.50;99.90;;;;;;5003587;28;20566;-51
2022/11/02 02:28:02;;;;;;;5.82;1.60;;;10.20;99.90;;;;;;5004103;28;20124;-54
2022/11/02 02:30:32;;;;;;;7.40;1.92;;;10.20;99.90;;;;;;5005178;28;20056;-53
2022/11/02 02:33:09;;;;;;;8.93;1.98;;;10.30;99.90;;;;;;5003731;28;20029;-52
2022/11/02 02:35:45;;;;;;;9.68;2.30;;;10.10;99.90;;;;;;5003575;28;20050;-52
2022/11/02 02:38:22;;;;;;;5.60;1.88;;;12.30;99.90;;;;;;5003718;28;20678;-52
2022/11/02 02:41:13;;;;;;;6.88;2.20;;;12.20;99.90;;;;;;5005295;28;20627;-53
2022/11/02 02:43:40;;;;;;;6.65;2.15;;;10.00;99.90;;;;;;5004327;28;20060;-54
2022/11/02 02:46:19;;;;;;;6.57;2.20;;;10.20;99.90;;;;;;5004458;28;20045;-54
2022/11/02 02:48:46;;;;;;;5.45;2.03;;;10.30;99.90;;;;;;5004389;28;20623;-54
2022/11/02 02:51:29;;;;;;;9.52;2.78;;;10.10;99.90;;;;;;5006623;28;20060;-54
2022/11/02 02:54:07;;;;;;;9.48;1.92;;;10.30;99.90;;;;;;5003541;28;20057;-54
2022/11/02 02:56:41;;;;;;;8.32;2.35;;;10.30;99.90;;;;;;5003778;28;20077;-54
2022/11/02 02:59:22;;;;;;;9.68;1.90;;;10.40;99.90;;;;;;5005303;28;20333;-54
2022/11/02 03:01:48;;;;;;;7.63;1.50;;;11.40;99.90;;;;;;5004916;28;20037;-54
2022/11/02 03:04:14;;;;;;;9.10;1.48;;;12.60;99.90;;;;;;5004677;28;20098;-55
2022/11/02 03:06:43;;;;;;;7.53;1.38;;;10.50;99.90;;;;;;5004530;28;20385;-54
2022/11/02 03:09:21;;;;;;;6.60;1.02;;;10.50;99.90;;;;;;4993972;28;20034;-53
2022/11/02 03:11:55;;;;;;;8.68;1.60;;;10.30;99.90;;;;;;5004390;28;20515;-54
2022/11/02 03:14:27;;;;;;;3.65;0.90;;;10.40;99.90;;;;;;5003473;28;20094;-54
2022/11/02 03:17:19;;;;;;;7.78;1.33;;;10.50;99.90;;;;;;5001346;28;20037;-54
2022/11/02 03:20:01;;;;;;;4.25;0.70;;;10.20;99.90;;;;;;5004075;28;20515;-53
2022/11/02 03:23:17;;;;;;;5.03;0.68;;;10.10;99.90;;;;;;5004392;28;20050;-53
2022/11/02 03:25:55;;;;;;;8.75;1.30;;;10.30;99.90;;;;;;5011314;28;20124;-54
2022/11/02 03:28:32;;;;;;;7.68;1.30;;;10.30;99.90;;;;;;5004399;28;20049;-54
2022/11/02 03:31:14;;;;;;;3.78;0.80;;;11.00;99.90;;;;;;4997720;28;20053;-55
2022/11/02 03:33:54;;;;;;;5.90;0.98;;;11.60;99.90;;;;;;5002509;28;20049;-55
2022/11/02 03:36:32;;;;;;;6.88;0.88;;;10.60;99.90;;;;;;5003165;28;20048;-53
2022/11/02 03:39:07;;;;;;;8.52;1.58;;;10.30;99.90;;;;;;5005139;28;20935;-56
2022/11/02 03:41:36;;;;;;;5.78;0.90;;;10.30;99.90;;;;;;5004901;28;20064;-55
2022/11/02 03:44:08;;;;;;;9.27;1.65;;;10.20;99.90;;;;;;4999964;28;20057;-55
2022/11/02 03:46:37;;;;;;;9.40;1.23;;;10.10;99.90;;;;;;5000925;28;20046;-55
2022/11/02 03:49:06;;;;;;;8.57;1.38;;;12.10;99.90;;;;;;5003371;28;20515;-53
2022/11/02 03:51:36;;;;;;;8.30;1.35;;;10.30;99.90;;;;;;4998108;28;20049;-52
2022/11/02 03:54:07;;;;;;;9.10;1.20;;;11.50;99.90;;;;;;5004342;28;20106;-54
2022/11/02 03:56:44;;;;;;;6.20;1.30;;;12.60;99.90;;;;;;5000180;28;20045;-55
2022/11/02 03:59:12;;;;;;;8.70;1.30;;;10.20;99.90;;;;;;5002501;28;20534;-53
2022/11/02 04:01:46;;;;;;;8.13;1.23;;;10.30;99.90;;;;;;5002533;28;20053;-51
2022/11/02 04:04:12;;;;;;;14.25;2.13;;;10.80;99.90;;;;;;5004938;28;20044;-53
2022/11/02 04:06:40;;;;;;;9.35;1.30;;;10.30;99.90;;;;;;5002395;28;20061;-51
2022/11/02 04:09:06;;;;;;;9.57;1.38;;;10.40;99.90;;;;;;5004172;28;20045;-55
2022/11/02 04:19:45;;;;;;;9.30;1.65;;;10.30;99.90;;;;;;5002318;28;20049;-51
2022/11/02 04:27:39;;;;;;;7.60;1.17;;;12.60;99.90;;;;;;5006197;28;20098;-54
2022/11/02 04:30:05;;;;;;;12.07;2.55;;;10.40;99.90;;;;;;5008950;28;20062;-54
2022/11/02 04:35:24;;;;;;;8.63;1.45;;;10.40;99.90;;;;;;5009793;28;20315;-53
2022/11/02 04:40:35;;;;;;;9.43;1.50;;;10.20;99.90;;;;;;5005147;28;20046;-54
2022/11/02 04:43:00;;;;;;;9.00;1.30;;;12.40;99.90;;;;;;5007363;28;20041;-54
2022/11/02 04:45:26;;;;;;;9.20;1.33;;;10.40;99.90;;;;;;5007906;28;20481;-52
2022/11/02 04:47:52;;;;;;;9.30;1.67;;;10.30;99.90;;;;;;5008100;28;20044;-53
2022/11/02 04:50:18;;;;;;;12.23;1.73;;;10.30;99.90;;;;;;5007008;28;20033;-53
2022/11/02 04:52:44;;;;;;;10.35;1.60;;;10.30;99.90;;;;;;5004943;28;20038;-55
2022/11/02 04:55:09;;;;;;;10.52;1.45;;;10.40;99.90;;;;;;5003710;28;20139;-56
2022/11/02 04:57:35;;;;;;;12.48;1.80;;;10.30;99.90;;;;;;5005088;28;21545;-56
2022/11/02 05:00:01;;;;;;;11.52;1.75;;;10.40;99.90;;;;;;5008088;28;20042;-55
2022/11/02 05:02:26;;;;;;;7.80;1.70;;;10.30;99.90;;;;;;5005986;28;20512;-55
2022/11/02 05:04:52;;;;;;;8.68;1.30;;;11.40;99.90;;;;;;5004931;28;20069;-55
2022/11/02 05:07:18;;;;;;;11.88;2.00;;;10.30;99.90;;;;;;5007421;28;20045;-53
2022/11/02 05:09:43;;;;;;;6.22;1.40;;;10.40;99.90;;;;;;5004806;28;20037;-53
2022/11/02 05:12:09;;;;;;;12.40;2.03;;;10.40;99.90;;;;;;5006960;28;20062;-53
2022/11/02 05:14:35;;;;;;;12.23;2.33;;;10.50;99.90;;;;;;5008190;28;20935;-53
2022/11/02 05:17:01;;;;;;;6.78;1.45;;;11.50;99.90;;;;;;5006957;28;20105;-54
2022/11/02 05:19:26;;;;;;;10.10;1.63;;;10.20;99.90;;;;;;5007993;28;20041;-52
2022/11/02 05:21:52;;;;;;;8.73;2.40;;;10.20;99.90;;;;;;5002493;28;21008;-50
2022/11/02 05:24:18;;;;;;;7.32;1.55;;;10.40;99.90;;;;;;5006272;28;20351;-52
2022/11/02 05:26:43;;;;;;;10.32;1.90;;;10.10;99.90;;;;;;5076161;28;20056;-50
2022/11/02 05:29:09;;;;;;;12.75;1.98;;;11.20;99.90;;;;;;5005460;28;20033;-54
2022/11/02 05:31:35;;;;;;;9.32;1.95;;;10.30;99.90;;;;;;5006111;28;20041;-54
2022/11/02 05:34:00;;;;;;;12.88;2.20;;;11.20;99.90;;;;;;5007779;28;20044;-54
2022/11/02 05:36:26;;;;;;;10.55;2.05;;;10.30;99.90;;;;;;5005396;28;20058;-54
2022/11/02 05:38:54;;;;;;;13.93;2.97;;;11.70;99.90;;;;;;5004740;28;20120;-54
2022/11/02 05:41:20;;;;;;;11.70;2.72;;;10.40;99.90;;;;;;5003559;28;20084;-56
2022/11/02 05:43:46;;;;;;;9.75;1.85;;;10.40;99.90;;;;;;5008120;28;20042;-54
2022/11/02 05:46:14;;;;;;;9.18;2.55;;;10.90;99.90;;;;;;5007739;28;20046;-55
2022/11/02 05:48:40;;;;;;;11.02;1.85;;;10.30;99.90;;;;;;5006966;28;20514;-53
2022/11/02 05:51:06;;;;;;;11.65;2.55;;;10.20;99.90;;;;;;5004845;28;21310;-55
2022/11/02 05:53:36;;;;;;;11.43;1.77;;;10.30;99.90;;;;;;5008446;28;20072;-55
2022/11/02 05:56:06;;;;;;;12.35;1.77;;;10.30;99.90;;;;;;5007013;28;20037;-56
2022/11/02 05:58:33;;;;;;;11.95;2.90;;;10.40;99.90;;;;;;4993248;28;20542;-56
2022/11/02 06:01:03;;;;;;;9.50;1.80;;;8.10;99.90;;;;;;5005220;28;20052;-55
2022/11/02 06:03:30;;;;;;;14.25;1.88;;;10.40;99.90;;;;;;5007154;28;20037;-55
2022/11/02 06:06:00;;;;;;;17.50;2.72;;;11.60;99.90;;;;;;5006157;28;20041;-55
2022/11/02 06:08:26;;;;;;;12.05;2.20;;;10.40;99.90;;;;;;5004435;28;20441;-56
2022/11/02 06:10:52;;;;;;;16.40;2.25;;;10.40;99.90;;;;;;5007471;28;20041;-56
2022/11/02 06:13:18;;;;;;;11.52;2.20;;;10.40;99.90;;;;;;5018018;28;20045;-55
2022/11/02 06:15:44;;;;;;;15.25;2.10;;;10.20;99.90;;;;;;5006208;28;20549;-55
2022/11/02 06:18:09;;;;;;;14.07;2.17;;;10.40;99.90;;;;;;5004241;28;20033;-55
2022/11/02 06:20:35;;;;;;;13.55;2.40;;;11.60;99.90;;;;;;5003486;28;20050;-55
2022/11/02 06:23:01;;;;;;;11.38;2.25;;;11.90;99.90;;;;;;5002150;28;20674;-56
2022/11/02 06:25:27;;;;;;;13.82;2.13;;;10.40;99.90;;;;;;5003682;28;20042;-55
2022/11/02 06:27:55;;;;;;;12.73;2.28;;;10.80;99.90;;;;;;5003946;28;20597;-56
2022/11/02 06:30:21;;;;;;;18.83;2.58;;;10.60;99.90;;;;;;5005434;28;20045;-52
2022/11/02 06:32:48;;;;;;;17.35;3.15;;;11.10;99.90;;;;;;5003881;28;20054;-54
2022/11/02 06:35:16;;;;;;;11.52;2.22;;;10.60;99.90;;;;;;5004170;28;20061;-54
2022/11/02 06:37:42;;;;;;;13.02;2.58;;;10.50;99.90;;;;;;5005469;28;20329;-55
2022/11/02 06:40:08;;;;;;;12.82;1.60;;;10.40;99.90;;;;;;5002689;28;20030;-55
2022/11/02 06:42:33;;;;;;;14.07;1.80;;;10.50;99.90;;;;;;5003396;28;20037;-55
2022/11/02 06:45:01;;;;;;;14.32;2.63;;;12.50;99.90;;;;;;5001775;28;20526;-56
2022/11/02 06:47:35;;;;;;;17.30;2.88;;;11.50;99.90;;;;;;5004518;28;20053;-55
2022/11/02 06:50:02;;;;;;;15.80;2.45;;;12.60;99.90;;;;;;5003294;28;20045;-55
2022/11/02 06:52:29;;;;;;;21.55;4.68;;;12.40;99.90;;;;;;5001618;28;20081;-55
2022/11/02 06:54:55;;;;;;;12.88;2.58;;;10.50;99.90;;;;;;5002973;28;20071;-55
2022/11/02 06:57:21;;;;;;;18.05;3.53;;;10.40;99.90;;;;;;5005357;28;20125;-55
2022/11/02 06:59:46;;;;;;;11.60;1.90;;;10.80;99.90;;;;;;5020716;28;20096;-55
2022/11/02 07:02:12;;;;;;;13.55;2.65;;;10.50;99.90;;;;;;5004140;28;20350;-55
2022/11/02 07:04:38;;;;;;;10.40;1.52;;;10.70;99.90;;;;;;5002916;28;20112;-54
2022/11/02 07:07:04;;;;;;;12.25;1.98;;;11.30;99.90;;;;;;5003053;28;20038;-55
2022/11/02 07:09:29;;;;;;;12.57;1.98;;;10.80;99.90;;;;;;5004337;28;20047;-54
2022/11/02 07:11:55;;;;;;;12.00;2.20;;;10.90;99.90;;;;;;5005146;28;20158;-55
2022/11/02 07:14:21;;;;;;;10.75;1.92;;;10.70;99.90;;;;;;5007467;28;20515;-53
2022/11/02 07:16:46;;;;;;;14.00;2.20;;;10.60;99.90;;;;;;5007002;28;20042;-54
2022/11/02 07:19:12;;;;;;;9.75;1.75;;;10.60;99.90;;;;;;5008151;28;20185;-52
2022/11/02 07:21:38;;;;;;;10.75;1.80;;;10.70;99.90;;;;;;5004399;28;20042;-55
2022/11/02 07:24:04;;;;;;;10.38;1.65;;;10.40;99.90;;;;;;5004548;28;20052;-52
2022/11/02 07:26:30;;;;;;;11.57;1.50;;;10.40;99.90;;;;;;5006980;28;20124;-55
2022/11/02 07:28:56;;;;;;;8.63;1.50;;;10.40;99.90;;;;;;5002709;28;20219;-53
2022/11/02 07:31:21;;;;;;;10.23;1.45;;;10.50;99.90;;;;;;5003603;28;20056;-53
2022/11/02 07:33:47;;;;;;;6.70;1.10;;;10.30;99.90;;;;;;5005335;28;20041;-54
2022/11/02 07:36:13;;;;;;;7.63;1.70;;;10.50;99.90;;;;;;5004377;28;20049;-54
2022/11/02 07:38:38;;;;;;;8.80;1.55;;;8.20;99.90;;;;;;5003545;28;20072;-55
2022/11/02 07:41:04;;;;;;;6.68;1.30;;;10.50;99.90;;;;;;5003588;28;20049;-56
2022/11/02 07:43:30;;;;;;;9.32;1.73;;;10.40;99.90;;;;;;5005065;28;20036;-55
2022/11/02 07:45:56;;;;;;;8.80;1.23;;;10.50;99.90;;;;;;5000906;28;20045;-55
2022/11/02 07:48:22;;;;;;;9.65;1.35;;;10.50;99.90;;;;;;5005987;28;20469;-56
2022/11/02 07:50:47;;;;;;;11.57;1.23;;;10.50;99.90;;;;;;5006238;28;20041;-56
2022/11/02 07:53:13;;;;;;;7.88;1.35;;;10.40;99.90;;;;;;5002788;28;20046;-55
2022/11/02 07:55:39;;;;;;;8.48;2.20;;;10.60;99.90;;;;;;5004026;28;20046;-56
2022/11/02 07:58:08;;;;;;;6.80;1.13;;;11.80;99.90;;;;;;5004477;28;20948;-56
2022/11/02 08:00:36;;;;;;;9.60;1.60;;;10.50;99.90;;;;;;5007755;28;20412;-56
2022/11/02 08:03:04;;;;;;;8.80;1.63;;;10.30;99.90;;;;;;5006612;28;20070;-56
2022/11/02 08:05:32;;;;;;;6.85;1.20;;;10.90;99.90;;;;;;5008857;28;20105;-56
2022/11/02 08:07:59;;;;;;;9.68;1.73;;;10.80;99.90;;;;;;5007594;28;21969;-56
2022/11/02 08:10:25;;;;;;;8.70;1.30;;;10.60;99.90;;;;;;5010277;28;20045;-56
2022/11/02 08:12:51;;;;;;;5.78;1.10;;;10.70;99.90;;;;;;5008130;28;20041;-56
2022/11/02 08:15:17;;;;;;;4.38;1.20;;;10.70;99.90;;;;;;5008000;28;20052;-56
2022/11/02 08:17:42;;;;;;;10.48;1.85;;;10.80;99.90;;;;;;5006131;28;20046;-56
2022/11/02 08:20:09;;;;;;;7.18;1.20;;;10.70;99.90;;;;;;5008686;28;20067;-56
2022/11/02 08:22:39;;;;;;;7.22;1.38;;;10.90;99.90;;;;;;5009708;28;20041;-56
2022/11/02 08:25:06;;;;;;;14.35;1.88;;;10.90;99.90;;;;;;5008473;28;20084;-56
2022/11/02 08:27:32;;;;;;;8.27;1.20;;;11.00;99.90;;;;;;5008246;28;20125;-56
2022/11/02 08:29:58;;;;;;;9.27;1.45;;;11.10;99.90;;;;;;5006773;28;22242;-56
2022/11/02 08:32:24;;;;;;;6.38;1.15;;;13.00;99.90;;;;;;5021045;28;20049;-56
2022/11/02 08:34:49;;;;;;;10.02;1.75;;;12.40;99.90;;;;;;5006988;28;20065;-56
2022/11/02 08:37:15;;;;;;;10.13;2.08;;;11.60;98.50;;;;;;5006172;28;20042;-56
2022/11/02 08:39:41;;;;;;;10.23;1.80;;;11.90;99.90;;;;;;5008516;28;20501;-56
2022/11/02 08:42:07;;;;;;;10.07;1.50;;;12.00;99.90;;;;;;5008169;28;20496;-55
2022/11/02 08:44:32;;;;;;;9.30;1.77;;;12.60;96.80;;;;;;5006398;28;20144;-56
2022/11/02 08:46:58;;;;;;;14.73;2.72;;;12.90;81.50;;;;;;5007340;28;20052;-57
2022/11/02 08:49:24;;;;;;;7.93;1.60;;;13.30;84.50;;;;;;5007027;28;20042;-56
2022/11/02 08:51:49;;;;;;;6.60;1.60;;;14.10;55.50;;;;;;5006098;28;20129;-56
2022/11/02 08:54:15;;;;;;;11.75;1.98;;;14.60;19.00;;;;;;5002641;28;20394;-56
2022/11/02 08:56:41;;;;;;;12.45;1.85;;;15.10;1.00;;;;;;5006387;28;20787;-56
2022/11/02 08:59:08;;;;;;;11.38;2.22;;;15.10;1.00;;;;;;5005557;28;20602;-56
2022/11/02 09:01:33;;;;;;;9.85;1.50;;;14.30;1.00;;;;;;5005059;28;20042;-56
2022/11/02 09:03:59;;;;;;;11.70;1.90;;;14.20;1.00;;;;;;5008541;28;20401;-56
2022/11/02 09:06:25;;;;;;;10.05;1.75;;;14.80;1.00;;;;;;5005217;28;20295;-56
2022/11/02 09:08:50;;;;;;;10.80;1.63;;;15.40;1.00;;;;;;5005969;28;20684;-56
2022/11/02 09:11:16;;;;;;;13.38;2.00;;;16.10;1.00;;;;;;5005392;28;20041;-56
2022/11/02 09:13:42;;;;;;;11.00;1.90;;;16.30;1.00;;;;;;5008512;28;20045;-56
2022/11/02 09:16:08;;;;;;;17.15;2.03;;;16.90;99.90;;;;;;5004119;28;20044;-57
2022/11/02 09:18:33;;;;;;;11.18;1.77;;;16.80;99.90;;;;;;5003422;28;20124;-57
2022/11/02 09:21:03;;;;;;;13.07;2.90;;;16.60;99.90;;;;;;5006588;28;20071;-56
2022/11/02 09:23:30;;;;;;;10.77;2.22;;;15.90;99.90;;;;;;5001750;28;20127;-56
2022/11/02 09:25:56;;;;;;;18.20;1.95;;;15.60;99.90;;;;;;4999366;28;20056;-56
2022/11/02 09:28:22;;;;;;;16.30;1.55;;;15.30;99.90;;;;;;5001581;28;20482;-56
2022/11/02 09:30:48;;;;;;;7.80;1.50;;;15.10;1.00;;;;;;5004762;28;20038;-56
2022/11/02 09:33:14;;;;;;;18.73;2.00;;;14.50;1.00;;;;;;5007400;28;20041;-55
2022/11/02 09:35:43;;;;;;;9.52;1.75;;;14.30;1.00;;;;;;5005948;28;20402;-55
2022/11/02 09:38:09;;;;;;;12.23;2.20;;;13.70;1.00;;;;;;5006364;28;20402;-56
2022/11/02 09:40:58;;;;;;;9.18;1.63;;;13.60;1.00;;;;;;5008833;28;20041;-56
2022/11/02 09:43:52;;;;;;;9.27;1.50;;;13.30;1.00;;;;;;4997177;28;20412;-56
2022/11/02 09:46:31;;;;;;;13.23;2.00;;;13.10;1.00;;;;;;5006290;28;20073;-56
2022/11/02 09:49:12;;;;;;;9.45;2.05;;;13.00;1.00;;;;;;5006847;28;21246;-56
2022/11/02 09:51:40;;;;;;;15.68;2.30;;;13.10;1.00;;;;;;5008257;28;20041;-56
2022/11/02 09:54:29;;;;;;;10.98;2.10;;;12.90;8.70;;;;;;5007173;28;20072;-56
2022/11/02 09:57:03;;;;;;;11.07;2.08;;;12.80;4.00;;;;;;5006528;28;20933;-56
2022/11/02 09:59:29;;;;;;;7.45;1.50;;;12.90;11.00;;;;;;5003741;28;20144;-55
2022/11/02 10:02:21;;;;;;;16.92;2.80;;;12.80;14.70;;;;;;5004695;28;20040;-55
2022/11/02 10:04:52;;;;;;;11.05;1.75;;;12.80;15.70;;;;;;5003754;28;20049;-56
2022/11/02 10:07:39;;;;;;;14.68;2.20;;;12.70;26.30;;;;;;5005843;28;20506;-55
2022/11/02 10:10:16;;;;;;;12.48;1.92;;;12.70;29.00;;;;;;5003452;28;20045;-56
2022/11/02 10:13:01;;;;;;;12.90;2.38;;;12.80;26.50;;;;;;5005166;28;20045;-56
2022/11/02 10:15:51;;;;;;;14.02;2.22;;;13.00;34.80;;;;;;5004197;28;20674;-55
2022/11/02 10:18:25;;;;;;;15.20;2.45;;;13.20;28.10;;;;;;5002427;28;20124;-55
2022/11/02 10:21:04;;;;;;;10.48;2.10;;;13.40;2.20;;;;;;5005007;28;20038;-56
2022/11/02 10:23:32;;;;;;;13.30;2.20;;;13.40;1.00;;;;;;5002170;28;20049;-56
2022/11/02 10:26:01;;;;;;;13.25;2.03;;;13.70;1.00;;;;;;5003809;28;20522;-56
2022/11/02 10:28:35;;;;;;;14.18;1.83;;;13.70;1.00;;;;;;4999642;28;20123;-56
2022/11/02 10:31:01;;;;;;;11.55;2.00;;;13.80;1.00;;;;;;5002729;28;20509;-56
2022/11/02 10:33:29;;;;;;;14.90;2.22;;;13.50;1.00;;;;;;5003420;28;20090;-56
2022/11/02 10:36:27;;;;;;;11.20;1.92;;;14.30;1.00;;;;;;5003948;28;20067;-56
2022/11/02 10:39:17;;;;;;;14.63;2.20;;;13.80;1.00;;;;;;5002383;28;20875;-56
2022/11/02 10:42:17;;;;;;;16.10;2.05;;;14.00;99.90;;;;;;5000373;28;20047;-56
2022/11/02 10:45:19;;;;;;;12.50;2.17;;;14.20;99.90;;;;;;5003275;28;20045;-54
2022/11/02 10:48:03;;;;;;;11.50;1.83;;;13.70;99.90;;;;;;5005315;28;20257;-56
2022/11/02 10:50:41;;;;;;;10.13;2.42;;;13.90;99.90;;;;;;5006564;28;20050;-56
2022/11/02 10:53:16;;;;;;;11.40;1.85;;;13.90;99.90;;;;;;5004346;28;20041;-56
2022/11/02 10:55:58;;;;;;;11.18;2.33;;;13.50;99.90;;;;;;5002614;28;20788;-56
2022/11/02 10:58:27;;;;;;;10.07;1.53;;;13.50;99.90;;;;;;5004268;28;20093;-56
2022/11/02 11:01:10;;;;;;;13.13;2.15;;;13.50;99.90;;;;;;5006560;28;20073;-56
2022/11/02 11:04:05;;;;;;;8.95;1.95;;;13.50;99.90;;;;;;5005325;28;20041;-56
2022/11/02 11:06:37;;;;;;;12.88;1.80;;;13.80;1.00;;;;;;5005701;28;20038;-56
2022/11/02 11:09:17;;;;;;;9.10;2.10;;;14.30;1.00;;;;;;5006414;28;20065;-56
2022/11/02 11:12:12;;;;;;;10.23;1.80;;;14.00;99.90;;;;;;5003259;28;20060;-55
2022/11/02 11:14:46;;;;;;;13.13;2.00;;;14.00;99.90;;;;;;5004513;28;20113;-57
2022/11/02 11:17:22;;;;;;;15.35;2.40;;;15.90;99.90;;;;;;5005761;28;20038;-56
2022/11/02 11:19:53;;;;;;;12.63;2.75;;;14.10;99.90;;;;;;5003160;28;20050;-56
2022/11/02 11:22:31;;;;;;;12.73;1.73;;;14.10;99.90;;;;;;5004978;28;20407;-56
2022/11/02 11:25:12;;;;;;;11.63;1.88;;;13.90;99.90;;;;;;5005211;28;20121;-56
2022/11/02 11:27:49;;;;;;;11.00;2.35;;;14.00;99.90;;;;;;5005040;28;20079;-56
2022/11/02 11:30:27;;;;;;;7.32;1.52;;;14.00;99.90;;;;;;5004369;28;20038;-56
2022/11/02 11:32:55;;;;;;;12.27;2.03;;;13.90;99.90;;;;;;5001831;28;20803;-56
2022/11/02 11:35:24;;;;;;;11.05;1.88;;;13.70;99.90;;;;;;5005052;28;21212;-55
2022/11/02 11:38:14;;;;;;;9.68;1.63;;;13.60;99.90;;;;;;5004364;28;20057;-56
2022/11/02 11:40:44;;;;;;;14.40;3.22;;;13.40;99.90;;;;;;5009452;28;20068;-56
2022/11/02 11:43:14;;;;;;;8.02;1.83;;;13.60;99.90;;;;;;5001352;28;20047;-56
2022/11/02 11:46:02;;;;;;;8.38;1.48;;;13.60;99.90;;;;;;5004813;28;20433;-55
2022/11/02 11:48:31;;;;;;;8.82;1.48;;;15.70;99.90;;;;;;5003905;28;20044;-56
2022/11/02 11:50:58;;;;;;;12.95;1.90;;;13.70;99.90;;;;;;5002950;28;20137;-56
2022/11/02 11:53:25;;;;;;;13.00;1.50;;;13.70;1.00;;;;;;5005464;28;20053;-56
2022/11/02 11:55:59;;;;;;;9.63;1.58;;;13.80;47.30;;;;;;5000247;28;20061;-56
2022/11/02 11:58:32;;;;;;;9.32;1.70;;;13.70;1.00;;;;;;5001629;28;20144;-56
2022/11/02 12:01:16;;;;;;;11.65;2.00;;;13.70;99.90;;;;;;5006267;28;20110;-56
2022/11/02 12:04:01;;;;;;;12.13;2.88;;;13.80;99.90;;;;;;5003872;28;20067;-55
2022/11/02 12:06:30;;;;;;;7.65;1.30;;;13.60;21.70;;;;;;5000788;28;20520;-56
2022/11/02 12:09:17;;;;;;;9.60;1.40;;;14.00;40.60;;;;;;5001728;28;20053;-56
2022/11/02 12:12:19;;;;;;;8.05;1.75;;;13.50;1.00;;;;;;4998774;28;20411;-56
2022/11/02 12:15:04;;;;;;;9.70;1.75;;;13.40;99.90;;;;;;5000653;28;20044;-56
2022/11/02 12:17:38;;;;;;;12.40;1.98;;;13.60;99.90;;;;;;5005511;28;20073;-56
2022/11/02 12:20:16;;;;;;;12.45;2.05;;;13.50;6.50;;;;;;5003647;28;20126;-57
2022/11/02 12:23:07;;;;;;;9.35;1.70;;;13.50;99.90;;;;;;5007773;28;20050;-55
2022/11/02 12:25:59;;;;;;;16.33;1.92;;;13.30;99.90;;;;;;5004669;28;20046;-56
2022/11/02 12:29:00;;;;;;;13.63;1.83;;;13.50;99.90;;;;;;5002580;28;20048;-56
2022/11/02 12:31:35;;;;;;;12.05;1.48;;;13.30;30.00;;;;;;5002742;28;20053;-56
2022/11/02 12:34:18;;;;;;;11.85;2.20;;;14.00;82.00;;;;;;5002319;28;22245;-56
2022/11/02 12:37:03;;;;;;;13.75;1.70;;;13.00;1.00;;;;;;5003064;28;20049;-56
2022/11/02 12:39:47;;;;;;;8.88;1.73;;;13.30;99.90;;;;;;5002985;28;20067;-55
2022/11/02 12:42:27;;;;;;;9.88;1.80;;;13.40;99.90;;;;;;5003910;28;20044;-56
2022/11/02 12:44:52;;;;;;;14.57;2.95;;;13.60;99.90;;;;;;5002433;28;20098;-56
2022/11/02 12:47:26;;;;;;;10.63;1.98;;;13.80;99.90;;;;;;5006942;28;20702;-56
2022/11/02 12:50:12;;;;;;;9.55;1.63;;;13.90;99.90;;;;;;5004808;28;20116;-56
2022/11/02 12:52:41;;;;;;;13.63;1.80;;;13.90;99.90;;;;;;5006314;28;20037;-56
2022/11/02 12:55:33;;;;;;;8.25;1.70;;;14.00;1.00;;;;;;5007998;28;20532;-55
2022/11/02 12:58:05;;;;;;;11.38;1.70;;;13.80;1.00;;;;;;5002294;28;20579;-56
2022/11/02 13:00:32;;;;;;;;;;;13.80;39.30;;;;;;5005463;28;20114;-55
2022/11/02 13:03:47;;;;;;;13.13;2.03;;;13.70;99.90;;;;;;5004875;28;19925;-55
2022/11/02 13:06:18;;;;;;;15.02;1.90;;;13.90;99.90;;;;;;5027463;28;20045;-56
2022/11/02 13:09:01;;;;;;;10.13;1.73;;;13.80;99.90;;;;;;5027413;28;20037;-56
2022/11/02 13:11:36;;;;;;;8.00;1.58;;;14.00;99.90;;;;;;4996182;28;20988;-56
2022/11/02 13:14:08;;;;;;;15.02;1.85;;;14.00;99.90;;;;;;5005933;28;20557;-56
2022/11/02 13:16:45;;;;;;;10.70;1.95;;;14.00;99.90;;;;;;5005022;28;20052;-56
2022/11/02 13:19:22;;;;;;;14.05;2.47;;;13.90;99.90;;;;;;5006115;28;20481;-55
2022/11/02 13:21:55;;;;;;;14.52;2.50;;;13.70;1.00;;;;;;5003706;28;20034;-56
2022/11/02 13:24:29;;;;;;;16.90;1.83;;;13.70;99.90;;;;;;5005679;28;20609;-56